Time;durP1;ratioP1;P1;durP2;ratioP2;P2;SDS_P1;SDS_P2;PMS_P1;PMS_P2;Temp;Humidity;BMP_temperature;BMP_pressure;BME280_temperature;BME280_humidity;BME280_pressure;Samples;Min_cycle;Max_cycle;Signal;HPM_P1;HPM_P2
2022/03/12 00:00:00;;;;;;;7.65;3.78;;;11.20;99.90;;;;;;5048659;28;20021;-86
2022/03/12 00:02:31;;;;;;;5.38;4.00;;;11.20;99.90;;;;;;5049511;28;20031;-86
2022/03/12 00:04:57;;;;;;;4.43;3.70;;;11.20;99.90;;;;;;5031644;28;20501;-85
2022/03/12 00:07:23;;;;;;;6.20;4.20;;;11.20;99.90;;;;;;5049490;28;20107;-86
2022/03/12 00:09:50;;;;;;;7.13;3.92;;;11.20;99.90;;;;;;5048801;28;20160;-85
2022/03/12 00:12:18;;;;;;;6.60;4.13;;;11.10;99.90;;;;;;5049608;28;20017;-85
2022/03/12 00:14:45;;;;;;;5.63;3.40;;;11.20;99.90;;;;;;5049802;28;20029;-86
2022/03/12 00:17:11;;;;;;;7.90;4.43;;;11.20;99.90;;;;;;5046739;28;20051;-86
2022/03/12 00:19:37;;;;;;;6.95;4.32;;;11.20;99.90;;;;;;5048582;28;20017;-86
2022/03/12 00:22:05;;;;;;;6.47;4.30;;;11.20;99.90;;;;;;5049544;28;20509;-86
2022/03/12 00:24:31;;;;;;;7.63;4.55;;;11.20;99.90;;;;;;5049172;28;20033;-85
2022/03/12 00:27:00;;;;;;;6.95;4.32;;;11.20;99.90;;;;;;5050621;28;20021;-86
2022/03/12 00:29:26;;;;;;;6.18;4.28;;;11.30;99.90;;;;;;5049170;28;20037;-85
2022/03/12 00:31:53;;;;;;;7.05;4.25;;;11.20;99.90;;;;;;5047113;28;20025;-85
2022/03/12 00:34:19;;;;;;;5.90;3.83;;;11.20;99.90;;;;;;5044587;28;20017;-85
2022/03/12 00:36:45;;;;;;;6.10;3.67;;;11.20;99.90;;;;;;5049077;28;20537;-86
2022/03/12 00:39:13;;;;;;;6.22;4.00;;;11.20;99.90;;;;;;5047373;28;20486;-85
2022/03/12 00:41:42;;;;;;;6.40;4.00;;;11.30;99.90;;;;;;5049587;28;20029;-85
2022/03/12 00:44:09;;;;;;;7.47;3.60;;;11.20;99.90;;;;;;5049276;28;20104;-85
2022/03/12 00:46:35;;;;;;;3.78;3.22;;;11.10;99.90;;;;;;5048821;28;20021;-85
2022/03/12 00:49:01;;;;;;;7.95;3.90;;;11.20;99.90;;;;;;5049065;28;20417;-85
2022/03/12 00:51:26;;;;;;;6.28;3.78;;;11.10;99.90;;;;;;5048799;28;20095;-85
2022/03/12 00:53:52;;;;;;;7.28;4.40;;;11.10;99.90;;;;;;5049975;28;20479;-85
2022/03/12 00:56:18;;;;;;;5.13;3.72;;;11.10;99.90;;;;;;5046063;28;20021;-85
2022/03/12 00:58:45;;;;;;;5.97;3.35;;;11.20;99.90;;;;;;5048545;28;20768;-85
2022/03/12 01:01:12;;;;;;;6.68;4.13;;;11.20;99.90;;;;;;5049047;28;20017;-85
2022/03/12 01:03:38;;;;;;;5.85;3.60;;;11.20;99.90;;;;;;5035041;28;20493;-85
2022/03/12 01:06:05;;;;;;;7.43;3.75;;;11.20;99.90;;;;;;5050409;28;20025;-85
2022/03/12 01:08:33;;;;;;;7.18;3.92;;;11.20;99.90;;;;;;5048948;28;20040;-85
2022/03/12 01:11:03;;;;;;;4.65;3.47;;;11.20;99.90;;;;;;5049193;28;20097;-85
2022/03/12 01:13:28;;;;;;;6.60;4.07;;;11.20;99.90;;;;;;5039910;28;20029;-85
2022/03/12 01:15:54;;;;;;;7.45;4.65;;;11.20;99.90;;;;;;5034618;28;20162;-85
2022/03/12 01:18:22;;;;;;;8.27;5.20;;;11.20;99.90;;;;;;5051137;28;20550;-85
2022/03/12 01:20:49;;;;;;;10.43;5.60;;;11.10;99.90;;;;;;5053302;28;20020;-85
2022/03/12 01:23:16;;;;;;;13.20;6.90;;;11.10;99.90;;;;;;5052427;28;20034;-85
2022/03/12 01:25:44;;;;;;;9.77;6.28;;;11.10;99.90;;;;;;5052034;28;20486;-86
2022/03/12 01:28:10;;;;;;;10.65;5.88;;;11.10;99.90;;;;;;5040945;28;20029;-86
2022/03/12 01:30:37;;;;;;;11.15;6.53;;;11.10;99.90;;;;;;5052155;28;20506;-86
2022/03/12 01:33:04;;;;;;;13.35;7.20;;;11.10;99.90;;;;;;5053327;28;20017;-86
2022/03/12 01:35:30;;;;;;;13.60;6.78;;;11.10;99.90;;;;;;5051684;28;20029;-86
2022/03/12 01:37:56;;;;;;;14.05;7.80;;;11.00;99.90;;;;;;5051083;28;20067;-86
2022/03/12 01:40:22;;;;;;;11.52;6.30;;;11.10;99.90;;;;;;5051637;28;20127;-85
2022/03/12 01:42:48;;;;;;;12.30;6.85;;;11.10;99.90;;;;;;5051968;28;20063;-86
2022/03/12 01:45:27;;;;;;;10.93;6.57;;;11.00;99.90;;;;;;5052041;28;20104;-86
2022/03/12 01:47:58;;;;;;;8.07;5.05;;;11.10;99.90;;;;;;5035284;28;20044;-85
2022/03/12 01:50:28;;;;;;;8.13;5.70;;;11.10;99.90;;;;;;5049476;28;20051;-86
2022/03/12 01:52:59;;;;;;;10.95;5.80;;;11.00;99.90;;;;;;5047866;28;20035;-86
2022/03/12 01:55:30;;;;;;;8.68;5.18;;;10.90;99.90;;;;;;5049912;28;20026;-86
2022/03/12 01:57:57;;;;;;;8.65;5.07;;;11.00;99.90;;;;;;5051979;28;20039;-85
2022/03/12 02:00:26;;;;;;;7.35;5.15;;;11.00;99.90;;;;;;5051562;28;20021;-85
2022/03/12 02:02:54;;;;;;;8.15;4.40;;;11.00;99.90;;;;;;5053050;28;20029;-86
2022/03/12 02:05:25;;;;;;;9.55;4.85;;;11.10;99.90;;;;;;5051326;28;20033;-86
2022/03/12 02:07:51;;;;;;;7.38;4.70;;;11.10;99.90;;;;;;5051378;28;20056;-85
2022/03/12 02:10:22;;;;;;;6.25;4.00;;;11.00;99.90;;;;;;5051094;28;20064;-85
2022/03/12 02:12:48;;;;;;;5.85;4.35;;;11.00;99.90;;;;;;5051438;28;20510;-85
2022/03/12 02:15:17;;;;;;;5.07;3.65;;;11.00;99.90;;;;;;5049114;28;20053;-85
2022/03/12 02:17:43;;;;;;;8.40;4.60;;;11.00;99.90;;;;;;5051881;28;20036;-85
2022/03/12 02:20:09;;;;;;;7.82;3.63;;;11.00;99.90;;;;;;5051045;28;20052;-84
2022/03/12 02:22:34;;;;;;;5.72;4.10;;;11.00;99.90;;;;;;5050607;28;20032;-84
2022/03/12 02:25:00;;;;;;;6.15;3.80;;;10.90;99.90;;;;;;5050652;28;20079;-84
2022/03/12 02:27:26;;;;;;;5.47;3.75;;;10.90;99.90;;;;;;5051426;28;20086;-84
2022/03/12 02:29:59;;;;;;;7.35;4.15;;;10.90;99.90;;;;;;5050846;28;20529;-84
2022/03/12 02:32:25;;;;;;;7.43;4.43;;;10.90;99.90;;;;;;5047297;28;20557;-84
2022/03/12 02:34:51;;;;;;;6.30;4.18;;;10.90;99.90;;;;;;5049143;28;20096;-84
2022/03/12 02:37:33;;;;;;;7.15;3.85;;;10.80;99.90;;;;;;5050675;28;20029;-84
2022/03/12 02:40:01;;;;;;;;;;;10.80;99.90;;;;;;5051547;28;20510;-84
2022/03/12 02:42:28;;;;;;;4.60;3.28;;;10.80;99.90;;;;;;5050650;28;19924;-83
2022/03/12 02:44:54;;;;;;;5.25;3.40;;;10.80;99.90;;;;;;5051823;28;20029;-83
2022/03/12 02:47:25;;;;;;;6.25;3.58;;;10.70;99.90;;;;;;5048649;28;20017;-83
2022/03/12 02:49:58;;;;;;;4.32;3.58;;;10.70;99.90;;;;;;5049884;28;20064;-83
2022/03/12 02:52:27;;;;;;;3.92;2.90;;;10.70;99.90;;;;;;5047916;28;20025;-83
2022/03/12 02:54:55;;;;;;;7.45;3.60;;;10.60;99.90;;;;;;5050736;28;20025;-83
2022/03/12 02:57:23;;;;;;;6.07;3.10;;;10.60;99.90;;;;;;5050599;28;20100;-83
2022/03/12 02:59:50;;;;;;;4.32;3.03;;;10.60;99.90;;;;;;5051570;28;20025;-82
2022/03/12 03:02:16;;;;;;;3.67;3.03;;;10.60;99.90;;;;;;5032368;28;20506;-82
2022/03/12 03:04:42;;;;;;;3.75;2.55;;;10.50;99.90;;;;;;5049560;28;20025;-82
2022/03/12 03:07:10;;;;;;;5.20;2.95;;;10.50;99.90;;;;;;5049467;28;20024;-82
2022/03/12 03:09:38;;;;;;;3.30;2.97;;;10.50;99.90;;;;;;5042632;28;20025;-82
2022/03/12 03:12:08;;;;;;;3.08;2.40;;;10.50;99.90;;;;;;5048847;28;20025;-82
2022/03/12 03:14:35;;;;;;;3.97;2.50;;;10.50;99.90;;;;;;5049510;28;20104;-81
2022/03/12 03:17:04;;;;;;;3.58;2.60;;;10.50;99.90;;;;;;5049905;28;20103;-82
2022/03/12 03:19:31;;;;;;;2.83;1.98;;;10.50;99.90;;;;;;5050335;28;20262;-81
2022/03/12 03:21:58;;;;;;;3.40;2.50;;;10.40;99.90;;;;;;5050541;28;20029;-80
2022/03/12 03:24:25;;;;;;;3.22;2.10;;;10.50;99.90;;;;;;5050016;28;20108;-80
2022/03/12 03:26:57;;;;;;;3.22;2.35;;;10.40;99.90;;;;;;5049739;28;20029;-80
2022/03/12 03:29:24;;;;;;;3.20;2.10;;;10.50;99.90;;;;;;5045612;28;20035;-80
2022/03/12 03:31:51;;;;;;;3.08;2.58;;;10.50;99.90;;;;;;5047242;28;20059;-80
2022/03/12 03:34:17;;;;;;;3.85;2.25;;;10.40;99.90;;;;;;5048514;28;20021;-80
2022/03/12 03:36:44;;;;;;;3.80;2.67;;;10.40;99.90;;;;;;5049936;28;20066;-80
2022/03/12 03:39:10;;;;;;;5.38;2.78;;;10.40;99.90;;;;;;5050485;28;20029;-80
2022/03/12 03:41:35;;;;;;;4.57;2.70;;;10.40;99.90;;;;;;5050657;28;20695;-79
2022/03/12 03:44:01;;;;;;;3.05;2.45;;;10.40;99.90;;;;;;5049801;28;20594;-79
2022/03/12 03:46:27;;;;;;;2.97;2.13;;;10.30;99.90;;;;;;5047988;28;20070;-79
2022/03/12 03:48:54;;;;;;;2.65;2.22;;;10.40;99.90;;;;;;5047991;28;20021;-79
2022/03/12 03:51:21;;;;;;;3.78;2.72;;;10.30;99.90;;;;;;5049915;28;20075;-80
2022/03/12 03:53:48;;;;;;;2.78;2.53;;;10.30;99.90;;;;;;5048982;28;20064;-80
2022/03/12 03:56:15;;;;;;;5.00;3.15;;;10.30;99.90;;;;;;5049790;28;20099;-79
2022/03/12 03:58:41;;;;;;;3.42;2.65;;;10.30;99.90;;;;;;5049705;28;20504;-79
2022/03/12 04:01:13;;;;;;;4.18;2.70;;;10.30;99.90;;;;;;5049511;28;20009;-79
2022/03/12 04:03:44;;;;;;;4.30;2.78;;;10.30;99.90;;;;;;5045746;28;20059;-79
2022/03/12 04:06:10;;;;;;;4.78;2.35;;;10.30;99.90;;;;;;5049883;28;20035;-79
2022/03/12 04:08:36;;;;;;;4.80;2.70;;;10.30;99.90;;;;;;5050231;28;20037;-80
2022/03/12 04:11:04;;;;;;;4.15;2.80;;;10.20;99.90;;;;;;5049480;28;20568;-80
2022/03/12 04:13:31;;;;;;;4.22;2.78;;;10.20;99.90;;;;;;5048726;28;20059;-80
2022/03/12 04:16:01;;;;;;;2.55;2.35;;;10.20;99.90;;;;;;5049110;28;20104;-80
2022/03/12 04:18:29;;;;;;;3.10;2.50;;;10.20;99.90;;;;;;5049455;28;20025;-80
2022/03/12 04:20:55;;;;;;;2.75;2.17;;;10.10;99.90;;;;;;5050654;28;20024;-80
2022/03/12 04:23:21;;;;;;;3.13;2.33;;;10.20;99.90;;;;;;5049276;28;20032;-80
2022/03/12 04:25:52;;;;;;;4.00;2.13;;;10.20;99.90;;;;;;5047569;28;20029;-80
2022/03/12 04:28:20;;;;;;;2.08;1.88;;;10.20;99.90;;;;;;5049334;28;20017;-80
2022/03/12 04:30:45;;;;;;;3.22;2.50;;;10.10;99.90;;;;;;5049043;28;20025;-81
2022/03/12 04:33:13;;;;;;;2.25;1.95;;;9.90;99.90;;;;;;5047140;28;20434;-81
2022/03/12 04:35:41;;;;;;;2.42;2.08;;;10.00;99.90;;;;;;5049698;28;20047;-81
2022/03/12 04:38:07;;;;;;;2.17;1.65;;;10.00;99.90;;;;;;5045927;28;20025;-80
2022/03/12 04:40:33;;;;;;;1.92;1.70;;;10.00;99.90;;;;;;5049072;28;20025;-80
2022/03/12 04:42:59;;;;;;;1.70;1.60;;;10.00;99.90;;;;;;5049342;28;20021;-80
2022/03/12 04:45:26;;;;;;;1.90;1.80;;;10.00;99.90;;;;;;5050288;28;20032;-80
2022/03/12 04:47:53;;;;;;;2.10;1.63;;;10.00;99.90;;;;;;5054006;28;20514;-81
2022/03/12 04:50:21;;;;;;;2.13;1.27;;;9.90;99.90;;;;;;5052097;28;20037;-81
2022/03/12 04:52:50;;;;;;;2.03;1.45;;;9.90;99.90;;;;;;5053054;28;20562;-81
2022/03/12 04:55:18;;;;;;;1.33;1.05;;;9.80;99.90;;;;;;5053069;28;20021;-81
2022/03/12 04:57:44;;;;;;;4.18;1.50;;;9.80;99.90;;;;;;5052975;28;20036;-82
2022/03/12 05:00:17;;;;;;;1.40;1.30;;;9.70;99.90;;;;;;5053046;28;20021;-82
2022/03/12 05:02:45;;;;;;;1.27;1.17;;;9.70;99.90;;;;;;5053534;28;20103;-82
2022/03/12 05:05:15;;;;;;;1.95;1.00;;;9.50;99.90;;;;;;5051476;28;20048;-82
2022/03/12 05:07:45;;;;;;;1.27;1.10;;;9.50;99.90;;;;;;5049040;28;20037;-83
2022/03/12 05:10:19;;;;;;;1.38;0.90;;;9.60;99.90;;;;;;5050681;28;20029;-82
2022/03/12 05:12:50;;;;;;;0.90;0.90;;;9.60;99.90;;;;;;5052658;28;20020;-83
2022/03/12 05:15:17;;;;;;;;;;;9.50;99.90;;;;;;5053085;28;20656;-83
2022/03/12 05:17:47;;;;;;;1.25;0.90;;;9.60;99.90;;;;;;5053566;28;19944;-83
2022/03/12 05:20:18;;;;;;;0.90;0.70;;;9.50;99.90;;;;;;5052445;28;20033;-83
2022/03/12 05:22:44;;;;;;;0.65;0.65;;;9.60;99.90;;;;;;5052707;28;20039;-83
2022/03/12 05:25:10;;;;;;;1.00;0.95;;;9.70;99.90;;;;;;5052129;28;20033;-81
2022/03/12 05:27:36;;;;;;;0.82;0.65;;;9.70;99.90;;;;;;5052558;28;20021;-82
2022/03/12 05:30:04;;;;;;;0.65;0.60;;;9.60;99.90;;;;;;5050896;28;20027;-82
2022/03/12 05:32:30;;;;;;;0.85;0.57;;;9.60;99.90;;;;;;5051103;28;20025;-82
2022/03/12 05:34:56;;;;;;;0.52;0.50;;;9.50;99.90;;;;;;5051783;28;20029;-82
2022/03/12 05:37:22;;;;;;;0.60;0.60;;;9.60;99.90;;;;;;5052172;28;20032;-82
2022/03/12 05:39:51;;;;;;;1.42;0.60;;;9.60;99.90;;;;;;5051854;28;20041;-81
2022/03/12 05:42:20;;;;;;;0.68;0.50;;;9.60;99.90;;;;;;5052352;28;20017;-82
2022/03/12 05:44:46;;;;;;;0.98;0.98;;;9.60;99.90;;;;;;5033888;28;20528;-82
2022/03/12 05:47:12;;;;;;;0.77;0.50;;;9.60;99.90;;;;;;5047651;28;20132;-82
2022/03/12 05:49:37;;;;;;;0.40;0.40;;;9.50;99.90;;;;;;5050897;28;20570;-81
2022/03/12 05:52:04;;;;;;;0.60;0.55;;;9.50;99.90;;;;;;5051974;28;20375;-81
2022/03/12 05:54:29;;;;;;;0.50;0.50;;;9.20;99.90;;;;;;5033824;28;20113;-81
2022/03/12 05:56:56;;;;;;;0.50;0.50;;;8.90;99.90;;;;;;5051913;28;20104;-83
2022/03/12 05:59:22;;;;;;;0.75;0.52;;;9.00;99.90;;;;;;5051846;28;20040;-83
2022/03/12 06:01:50;;;;;;;0.40;0.40;;;9.00;99.90;;;;;;5051085;28;20013;-83
2022/03/12 06:04:25;;;;;;;1.52;0.68;;;9.00;99.90;;;;;;5051242;28;20024;-83
2022/03/12 06:06:55;;;;;;;1.00;0.77;;;8.90;99.90;;;;;;5050874;28;20057;-83
2022/03/12 06:09:21;;;;;;;1.80;0.70;;;8.60;99.90;;;;;;5050124;28;20486;-82
2022/03/12 06:11:49;;;;;;;1.00;0.90;;;8.60;99.90;;;;;;5051239;28;20017;-83
2022/03/12 06:14:16;;;;;;;0.75;0.75;;;8.40;99.90;;;;;;5051649;28;20024;-83
2022/03/12 06:16:48;;;;;;;1.58;0.88;;;8.50;99.90;;;;;;5051193;28;20009;-82
2022/03/12 06:19:21;;;;;;;1.05;1.00;;;8.50;99.90;;;;;;5051370;28;20521;-82
2022/03/12 06:21:48;;;;;;;2.35;0.60;;;8.50;99.90;;;;;;5051089;28;20119;-82
2022/03/12 06:24:14;;;;;;;1.38;0.80;;;8.60;99.90;;;;;;5051426;28;20108;-82
2022/03/12 06:26:43;;;;;;;2.25;0.80;;;8.50;99.90;;;;;;5051474;28;20028;-82
2022/03/12 06:29:13;;;;;;;1.95;0.80;;;8.50;99.90;;;;;;5048506;28;20032;-82
2022/03/12 06:31:42;;;;;;;1.85;0.88;;;8.40;99.90;;;;;;5044892;28;20028;-82
2022/03/12 06:34:12;;;;;;;1.10;0.88;;;8.40;99.90;;;;;;5051180;28;20021;-82
2022/03/12 06:36:39;;;;;;;0.90;0.60;;;8.40;99.90;;;;;;5036442;28;20020;-82
2022/03/12 06:39:06;;;;;;;1.05;0.77;;;8.40;99.90;;;;;;5052504;28;20032;-82
2022/03/12 06:41:35;;;;;;;0.57;0.57;;;8.40;99.90;;;;;;5048890;28;20036;-82
2022/03/12 06:44:02;;;;;;;2.30;0.90;;;8.40;99.90;;;;;;5046834;28;20498;-82
2022/03/12 06:46:29;;;;;;;0.70;0.70;;;8.30;99.90;;;;;;5048268;28;20026;-82
2022/03/12 06:48:54;;;;;;;1.17;0.73;;;8.30;99.90;;;;;;5050897;28;20102;-82
2022/03/12 06:51:20;;;;;;;2.90;0.90;;;8.40;99.90;;;;;;5049671;28;20525;-82
2022/03/12 06:53:46;;;;;;;2.58;0.75;;;8.30;99.90;;;;;;5052010;28;20025;-83
2022/03/12 06:56:12;;;;;;;0.60;0.60;;;8.30;99.90;;;;;;5050315;28;20482;-82
2022/03/12 06:58:38;;;;;;;1.63;0.95;;;8.30;99.90;;;;;;5050525;28;20403;-82
2022/03/12 07:01:04;;;;;;;0.88;0.55;;;8.30;99.90;;;;;;5048755;28;20215;-82
2022/03/12 07:03:30;;;;;;;3.28;0.95;;;8.30;99.90;;;;;;5050733;28;20039;-81
2022/03/12 07:05:55;;;;;;;1.58;0.70;;;8.30;99.90;;;;;;5048094;28;20083;-81
2022/03/12 07:08:23;;;;;;;3.42;0.90;;;8.20;99.90;;;;;;5048498;28;20052;-81
2022/03/12 07:10:49;;;;;;;1.55;0.75;;;8.30;99.90;;;;;;5050460;28;20025;-81
2022/03/12 07:13:16;;;;;;;1.42;0.95;;;8.40;99.90;;;;;;5050389;28;20028;-81
2022/03/12 07:15:43;;;;;;;2.17;1.20;;;8.40;99.90;;;;;;5036754;28;20053;-81
2022/03/12 07:18:09;;;;;;;2.55;1.50;;;8.20;99.90;;;;;;5051231;28;20021;-82
2022/03/12 07:20:35;;;;;;;3.55;2.35;;;8.20;99.90;;;;;;5048592;28;20528;-82
2022/03/12 07:23:01;;;;;;;3.78;2.05;;;8.20;99.90;;;;;;5050197;28;20025;-82
2022/03/12 07:25:27;;;;;;;4.90;2.45;;;8.20;99.90;;;;;;5047621;28;20029;-82
2022/03/12 07:27:54;;;;;;;4.88;2.33;;;8.10;99.90;;;;;;5050391;28;20021;-82
2022/03/12 07:30:21;;;;;;;3.55;2.20;;;8.10;99.90;;;;;;5050277;28;20032;-82
2022/03/12 07:32:49;;;;;;;3.33;1.90;;;8.10;99.90;;;;;;5051287;28;20025;-82
2022/03/12 07:35:17;;;;;;;7.32;3.17;;;8.20;99.90;;;;;;5044079;28;20033;-82
2022/03/12 07:37:45;;;;;;;6.88;3.10;;;8.10;99.90;;;;;;5024285;28;20498;-82
2022/03/12 07:40:13;;;;;;;8.13;3.92;;;8.10;99.90;;;;;;5048265;28;20021;-82
2022/03/12 07:42:39;;;;;;;10.52;5.80;;;8.10;99.90;;;;;;5050058;28;20049;-82
2022/03/12 07:45:07;;;;;;;9.95;4.68;;;8.10;99.90;;;;;;5047521;28;20079;-82
2022/03/12 07:47:34;;;;;;;12.32;5.68;;;8.00;99.90;;;;;;5048056;28;20021;-82
2022/03/12 07:50:00;;;;;;;9.38;5.35;;;8.10;99.90;;;;;;5049542;28;20071;-82
2022/03/12 07:52:26;;;;;;;9.82;5.30;;;8.10;99.90;;;;;;5049111;28;20033;-82
2022/03/12 07:54:51;;;;;;;11.65;7.13;;;8.10;99.90;;;;;;5049785;28;20498;-82
2022/03/12 07:57:17;;;;;;;9.13;5.00;;;8.20;99.90;;;;;;5049955;28;20025;-82
2022/03/12 07:59:44;;;;;;;7.05;3.53;;;8.10;99.90;;;;;;5050634;28;20550;-82
2022/03/12 08:02:11;;;;;;;6.30;2.60;;;8.10;99.90;;;;;;5048830;28;20102;-82
2022/03/12 08:04:37;;;;;;;5.78;2.85;;;8.20;99.90;;;;;;5039208;28;20025;-82
2022/03/12 08:07:03;;;;;;;2.90;2.20;;;8.20;99.90;;;;;;5049043;28;20040;-82
2022/03/12 08:09:31;;;;;;;3.25;2.10;;;8.20;99.90;;;;;;5049210;28;20037;-82
2022/03/12 08:11:59;;;;;;;4.95;2.28;;;8.20;99.90;;;;;;5050380;28;20029;-82
2022/03/12 08:14:25;;;;;;;5.28;2.70;;;8.20;99.90;;;;;;5049506;28;20025;-82
2022/03/12 08:16:52;;;;;;;8.20;3.63;;;8.10;99.90;;;;;;5049088;28;20062;-82
2022/03/12 08:19:19;;;;;;;4.38;2.20;;;8.10;99.90;;;;;;5048385;28;20495;-82
2022/03/12 08:21:46;;;;;;;4.25;2.22;;;8.10;99.90;;;;;;5054723;28;20581;-82
2022/03/12 08:24:15;;;;;;;5.47;2.58;;;8.30;99.90;;;;;;5053604;28;20056;-82
2022/03/12 08:26:42;;;;;;;3.72;2.35;;;8.30;99.90;;;;;;5054822;28;20044;-82
2022/03/12 08:29:12;;;;;;;3.35;2.13;;;8.30;99.90;;;;;;5055867;28;20024;-82
2022/03/12 08:31:39;;;;;;;4.65;2.28;;;8.30;99.90;;;;;;5055551;28;20025;-82
2022/03/12 08:34:06;;;;;;;3.10;1.83;;;8.30;99.90;;;;;;5056019;28;20021;-82
2022/03/12 08:36:32;;;;;;;4.68;3.15;;;8.30;99.90;;;;;;5055500;28;20039;-82
2022/03/12 08:38:58;;;;;;;3.60;2.22;;;8.30;99.90;;;;;;5057224;28;20438;-82
2022/03/12 08:41:25;;;;;;;3.80;2.10;;;8.30;99.90;;;;;;5055614;28;20031;-82
2022/03/12 08:43:51;;;;;;;3.22;2.20;;;8.30;99.90;;;;;;5055499;28;20033;-82
2022/03/12 08:46:17;;;;;;;4.18;1.80;;;8.30;99.90;;;;;;5053148;28;20025;-82
2022/03/12 08:48:43;;;;;;;5.28;1.75;;;8.30;99.90;;;;;;5056062;28;20021;-82
2022/03/12 08:51:09;;;;;;;4.82;1.98;;;8.30;99.90;;;;;;5055963;28;20056;-82
2022/03/12 08:53:35;;;;;;;3.72;1.73;;;8.20;99.90;;;;;;5056521;28;20494;-82
2022/03/12 08:56:02;;;;;;;3.80;1.10;;;8.30;99.90;;;;;;5055556;28;20522;-82
2022/03/12 08:58:29;;;;;;;8.88;1.90;;;8.30;99.90;;;;;;5055424;28;20021;-82
2022/03/12 09:00:56;;;;;;;3.83;1.75;;;8.40;99.90;;;;;;5036374;28;20522;-82
2022/03/12 09:03:22;;;;;;;3.63;1.60;;;8.30;99.90;;;;;;5056124;28;20049;-82
2022/03/12 09:05:49;;;;;;;3.00;1.60;;;8.50;99.90;;;;;;5050558;28;20041;-82
2022/03/12 09:08:16;;;;;;;4.97;1.90;;;8.40;99.90;;;;;;5053489;28;20021;-82
2022/03/12 09:10:43;;;;;;;5.65;2.08;;;8.40;99.90;;;;;;5055716;28;20028;-82
2022/03/12 09:13:12;;;;;;;5.45;1.98;;;8.50;99.90;;;;;;5055645;28;20521;-82
2022/03/12 09:15:39;;;;;;;3.78;1.50;;;8.70;99.90;;;;;;5043721;28;20033;-82
2022/03/12 09:18:06;;;;;;;3.03;1.88;;;8.60;99.90;;;;;;5056959;28;20071;-82
2022/03/12 09:20:39;;;;;;;4.28;2.65;;;8.60;99.90;;;;;;5054647;28;20028;-82
2022/03/12 09:23:05;;;;;;;3.70;2.05;;;8.60;99.90;;;;;;5052111;28;20071;-82
2022/03/12 09:25:31;;;;;;;5.20;1.90;;;8.60;99.90;;;;;;5054640;28;20025;-82
2022/03/12 09:27:57;;;;;;;4.00;2.10;;;8.60;99.90;;;;;;5055662;28;20031;-82
2022/03/12 09:30:22;;;;;;;5.18;2.50;;;8.50;99.90;;;;;;5055215;28;20497;-82
2022/03/12 09:32:48;;;;;;;4.10;2.53;;;8.50;99.90;;;;;;5053741;28;20032;-82
2022/03/12 09:35:14;;;;;;;4.55;2.55;;;8.70;99.90;;;;;;5051886;28;20029;-82
2022/03/12 09:37:40;;;;;;;4.40;2.10;;;8.70;99.90;;;;;;5031897;28;20704;-82
2022/03/12 09:40:08;;;;;;;3.15;1.60;;;8.70;99.90;;;;;;5048632;28;20100;-82
2022/03/12 09:42:34;;;;;;;2.97;1.52;;;8.70;99.90;;;;;;5051996;28;20143;-82
2022/03/12 09:45:02;;;;;;;4.13;1.40;;;8.80;99.90;;;;;;5050961;28;20033;-82
2022/03/12 09:47:28;;;;;;;3.53;1.40;;;8.70;99.90;;;;;;5051702;28;20021;-82
2022/03/12 09:49:54;;;;;;;5.07;2.13;;;8.70;99.90;;;;;;5051545;28;20057;-82
2022/03/12 09:52:20;;;;;;;6.18;2.75;;;8.90;99.90;;;;;;5051650;28;20492;-82
2022/03/12 09:54:47;;;;;;;4.00;2.60;;;8.90;99.90;;;;;;5050089;28;20036;-82
2022/03/12 09:57:13;;;;;;;4.70;2.53;;;9.00;99.90;;;;;;5052457;28;20100;-82
2022/03/12 09:59:39;;;;;;;5.68;2.83;;;9.10;99.90;;;;;;5048315;28;20025;-82
2022/03/12 10:02:04;;;;;;;8.93;4.60;;;9.20;99.90;;;;;;5051638;28;20036;-82
2022/03/12 10:04:30;;;;;;;12.48;5.18;;;9.20;99.90;;;;;;5051290;28;20856;-82
2022/03/12 10:06:57;;;;;;;12.63;6.38;;;9.20;99.90;;;;;;5048412;28;20556;-82
2022/03/12 10:09:23;;;;;;;9.05;4.40;;;9.20;99.90;;;;;;5051894;28;20064;-82
2022/03/12 10:11:52;;;;;;;12.27;4.82;;;9.20;99.90;;;;;;5052622;28;20017;-82
2022/03/12 10:14:18;;;;;;;11.30;5.47;;;9.30;99.90;;;;;;5050897;28;20029;-82
2022/03/12 10:16:44;;;;;;;7.47;4.30;;;9.20;99.90;;;;;;5050380;28;20063;-82
2022/03/12 10:19:10;;;;;;;9.48;4.38;;;9.20;99.90;;;;;;5048311;28;20061;-82
2022/03/12 10:21:42;;;;;;;13.27;5.32;;;9.20;99.90;;;;;;5041381;28;20025;-81
2022/03/12 10:24:09;;;;;;;14.32;6.25;;;9.30;99.90;;;;;;5049521;28;20028;-82
2022/03/12 10:26:34;;;;;;;13.10;5.78;;;9.30;99.90;;;;;;5051803;28;20104;-82
2022/03/12 10:29:00;;;;;;;11.93;5.63;;;9.40;99.90;;;;;;5051217;28;20475;-82
2022/03/12 10:31:26;;;;;;;16.90;7.03;;;9.40;99.90;;;;;;5051026;28;20029;-82
2022/03/12 10:33:52;;;;;;;12.73;6.22;;;9.50;99.90;;;;;;5050781;28;20029;-82
2022/03/12 10:36:18;;;;;;;10.02;3.50;;;9.30;99.90;;;;;;5051254;28;20044;-82
2022/03/12 10:38:49;;;;;;;8.27;3.67;;;9.20;99.90;;;;;;5051654;28;20540;-82
2022/03/12 10:41:17;;;;;;;9.18;4.57;;;9.30;99.90;;;;;;5048015;28;20028;-82
2022/03/12 10:43:54;;;;;;;6.20;4.00;;;9.40;99.90;;;;;;5049230;28;20032;-82
2022/03/12 10:46:28;;;;;;;6.30;3.47;;;9.50;99.90;;;;;;5050292;28;20024;-81
2022/03/12 10:48:58;;;;;;;4.25;2.97;;;9.40;99.90;;;;;;5051120;28;20028;-82
2022/03/12 10:51:32;;;;;;;3.35;2.50;;;9.40;99.90;;;;;;5049366;28;20106;-82
2022/03/12 10:54:10;;;;;;;4.95;3.50;;;9.40;99.90;;;;;;5051984;28;20033;-82
2022/03/12 10:56:50;;;;;;;7.72;4.03;;;9.50;99.90;;;;;;5049088;28;20047;-82
2022/03/12 10:59:19;;;;;;;10.90;4.95;;;9.50;99.90;;;;;;5050959;28;20108;-82
2022/03/12 11:02:06;;;;;;;5.80;4.25;;;9.40;99.90;;;;;;5041788;28;20087;-82
2022/03/12 11:04:36;;;;;;;14.98;5.28;;;9.40;99.90;;;;;;5050504;28;20106;-82
2022/03/12 11:07:25;;;;;;;23.38;10.13;;;9.40;99.90;;;;;;5029783;28;20021;-82
2022/03/12 11:09:53;;;;;;;13.57;6.03;;;9.50;99.90;;;;;;5050179;28;20051;-82
2022/03/12 11:12:38;;;;;;;13.95;6.32;;;9.60;99.90;;;;;;5050636;28;20494;-82
2022/03/12 11:15:15;;;;;;;13.63;8.27;;;9.70;99.90;;;;;;5051479;28;20037;-82
2022/03/12 11:17:45;;;;;;;11.77;6.10;;;9.60;99.90;;;;;;5046421;28;20021;-81
2022/03/12 11:20:22;;;;;;;10.10;5.88;;;9.60;99.90;;;;;;5048211;28;20031;-81
2022/03/12 11:23:27;;;;;;;10.80;6.47;;;9.60;99.90;;;;;;5049773;28;20077;-82
2022/03/12 11:26:06;;;;;;;9.15;4.63;;;9.70;99.90;;;;;;4949657;28;20067;-81
2022/03/12 11:28:35;;;;;;;8.55;4.80;;;9.60;99.90;;;;;;4949701;28;20039;-82
2022/03/12 11:31:04;;;;;;;8.02;5.30;;;9.60;99.90;;;;;;4948982;28;20038;-82
2022/03/12 11:33:30;;;;;;;8.70;4.78;;;9.70;99.90;;;;;;4942420;28;20039;-82
2022/03/12 11:36:01;;;;;;;9.23;4.55;;;9.60;99.90;;;;;;4950214;28;20093;-82
2022/03/12 11:38:28;;;;;;;8.95;4.60;;;9.60;99.90;;;;;;4930551;29;20026;-82
2022/03/12 11:41:09;;;;;;;8.55;4.60;;;9.70;99.90;;;;;;4948337;28;20063;-82
2022/03/12 11:43:40;;;;;;;7.78;5.03;;;9.80;99.90;;;;;;4949728;28;20108;-81
2022/03/12 11:46:08;;;;;;;5.57;4.25;;;9.80;99.90;;;;;;4949725;29;20103;-82
2022/03/12 11:48:37;;;;;;;6.90;3.90;;;9.90;99.90;;;;;;4936289;28;20036;-81
2022/03/12 11:51:15;;;;;;;6.40;3.70;;;9.80;99.90;;;;;;4950669;28;20521;-81
2022/03/12 11:53:43;;;;;;;7.38;4.07;;;9.70;99.90;;;;;;4947989;28;20074;-82
2022/03/12 11:56:09;;;;;;;8.05;3.38;;;9.70;99.90;;;;;;4948132;28;20632;-82
2022/03/12 11:58:36;;;;;;;6.45;3.53;;;9.80;99.90;;;;;;4946609;28;20028;-81
2022/03/12 12:01:02;;;;;;;5.10;3.17;;;9.90;99.90;;;;;;4978962;28;20124;-81
2022/03/12 12:03:29;;;;;;;5.15;3.55;;;10.00;99.90;;;;;;5029205;28;20038;-81
2022/03/12 12:05:55;;;;;;;7.55;4.35;;;10.10;99.90;;;;;;5030827;28;20506;-81
2022/03/12 12:08:20;;;;;;;6.80;3.10;;;10.20;99.90;;;;;;5029482;28;20025;-81
2022/03/12 12:10:46;;;;;;;7.75;4.32;;;10.00;99.90;;;;;;5029520;28;20034;-81
2022/03/12 12:13:13;;;;;;;9.45;5.18;;;10.10;99.90;;;;;;5028157;28;20029;-81
2022/03/12 12:15:41;;;;;;;6.18;4.65;;;10.20;99.90;;;;;;5029221;28;20383;-81
2022/03/12 12:18:12;;;;;;;8.05;4.45;;;10.20;99.90;;;;;;5027332;28;20028;-82
2022/03/12 12:20:38;;;;;;;5.33;3.40;;;10.30;99.90;;;;;;5028131;28;20025;-81
2022/03/12 12:23:05;;;;;;;3.90;3.25;;;10.30;99.90;;;;;;5029192;28;20029;-81
2022/03/12 12:25:34;;;;;;;4.00;2.80;;;10.30;99.90;;;;;;5029122;28;20075;-81
2022/03/12 12:28:12;;;;;;;3.38;2.38;;;10.30;99.90;;;;;;5029543;28;20034;-81
2022/03/12 12:30:42;;;;;;;2.42;1.67;;;10.40;99.90;;;;;;5018325;28;20080;-81
2022/03/12 12:33:17;;;;;;;2.80;1.92;;;10.50;99.90;;;;;;5026612;28;20022;-81
2022/03/12 12:35:44;;;;;;;2.47;1.95;;;10.60;99.90;;;;;;5030337;28;20029;-81
2022/03/12 12:38:12;;;;;;;3.90;1.70;;;10.60;99.90;;;;;;5029387;28;20101;-81
2022/03/12 12:40:48;;;;;;;3.92;2.40;;;10.60;99.90;;;;;;5028690;28;20017;-81
2022/03/12 12:43:23;;;;;;;3.97;2.70;;;10.60;99.90;;;;;;5029190;28;20029;-81
2022/03/12 12:45:52;;;;;;;3.72;2.30;;;10.60;99.90;;;;;;5016380;28;20033;-81
2022/03/12 12:48:30;;;;;;;4.70;2.10;;;10.70;99.90;;;;;;5029467;28;20029;-81
2022/03/12 12:51:06;;;;;;;2.75;1.80;;;10.80;99.90;;;;;;5045641;28;20052;-81
2022/03/12 12:53:36;;;;;;;2.05;1.50;;;10.70;99.90;;;;;;5047467;28;20021;-81
2022/03/12 12:56:26;;;;;;;1.98;1.58;;;10.70;99.90;;;;;;5045064;28;20519;-81